createdAt,value
2017-03-21T00:00:07.984Z,0
2017-03-21T00:01:08.036Z,0
2017-03-21T00:02:08.084Z,0
2017-03-21T00:03:08.151Z,0
2017-03-21T00:04:08.179Z,0
2017-03-21T00:05:08.241Z,0
2017-03-21T00:06:08.288Z,0
2017-03-21T00:07:08.366Z,0
2017-03-21T00:08:08.413Z,0
2017-03-21T00:09:08.467Z,0
2017-03-21T00:10:08.514Z,0
2017-03-21T00:11:08.570Z,0
2017-03-21T00:12:08.330Z,0
2017-03-21T00:13:08.671Z,0
2017-03-21T00:14:08.737Z,0
2017-03-21T00:15:08.789Z,0
2017-03-21T00:16:08.828Z,0
2017-03-21T00:17:08.581Z,0
2017-03-21T00:18:08.649Z,0
2017-03-21T00:19:09.009Z,0
2017-03-21T00:20:08.753Z,0
2017-03-21T00:21:09.123Z,0
2017-03-21T00:22:09.170Z,0
2017-03-21T00:23:09.215Z,0
2017-03-21T00:24:08.975Z,0
2017-03-21T00:25:09.327Z,0
2017-03-21T00:26:09.386Z,0
2017-03-21T00:27:09.424Z,0
2017-03-21T00:28:09.497Z,0
2017-03-21T00:29:09.539Z,0
2017-03-21T00:30:09.590Z,0
2017-03-21T00:31:09.657Z,0
2017-03-21T00:32:09.721Z,0
2017-03-21T00:33:09.766Z,0
2017-03-21T00:34:09.809Z,0
2017-03-21T00:35:09.874Z,0
2017-03-21T00:36:09.621Z,0
2017-03-21T00:37:09.986Z,0
2017-03-21T00:38:10.022Z,0
2017-03-21T00:39:10.101Z,0
2017-03-21T00:40:10.148Z,0
2017-03-21T00:41:10.210Z,0
2017-03-21T00:42:10.239Z,0
2017-03-21T00:43:10.296Z,0
2017-03-21T00:44:10.061Z,0
2017-03-21T00:45:10.415Z,0
2017-03-21T00:46:10.478Z,0
2017-03-21T00:47:10.522Z,0
2017-03-21T00:48:10.583Z,0
2017-03-21T00:49:10.635Z,0
2017-03-21T00:50:10.686Z,0
2017-03-21T00:51:10.745Z,0
2017-03-21T00:52:10.793Z,0
2017-03-21T00:53:10.864Z,0
2017-03-21T00:54:10.807Z,0
2017-03-21T00:55:10.954Z,0
2017-03-21T00:56:10.704Z,0
2017-03-21T00:57:10.772Z,0
2017-03-21T00:58:11.119Z,0
2017-03-21T00:59:12.364Z,0
2017-03-21T01:00:11.222Z,0
2017-03-21T01:01:11.285Z,0
2017-03-21T01:02:11.319Z,0
2017-03-21T01:03:11.077Z,0
2017-03-21T01:04:11.440Z,0
2017-03-21T01:05:11.485Z,0
2017-03-21T01:06:11.559Z,0
2017-03-21T01:07:11.599Z,0
2017-03-21T01:08:11.673Z,0
2017-03-21T01:09:11.719Z,0
2017-03-21T01:10:11.763Z,0
2017-03-21T01:11:11.816Z,0
2017-03-21T01:12:11.567Z,0
2017-03-21T01:13:11.626Z,0
2017-03-21T01:14:11.691Z,0
2017-03-21T01:15:12.066Z,0
2017-03-21T01:16:12.087Z,0
2017-03-21T01:17:12.163Z,0
2017-03-21T01:18:11.898Z,0
2017-03-21T01:19:11.965Z,0
2017-03-21T01:20:12.294Z,0
2017-03-21T01:21:12.371Z,0
2017-03-21T01:22:12.400Z,0
2017-03-21T01:23:12.519Z,0
2017-03-21T01:24:12.520Z,0
2017-03-21T01:25:12.584Z,0
2017-03-21T01:26:12.620Z,0
2017-03-21T01:27:12.686Z,0
2017-03-21T01:28:12.936Z,0
2017-03-21T01:29:12.988Z,0
2017-03-21T01:30:12.838Z,0
2017-03-21T01:31:12.591Z,0
2017-03-21T01:32:12.947Z,0
2017-03-21T01:33:13.014Z,0
2017-03-21T01:34:12.762Z,0
2017-03-21T01:35:13.117Z,0
2017-03-21T01:36:13.156Z,0
2017-03-21T01:37:13.229Z,0
2017-03-21T01:38:13.278Z,0
2017-03-21T01:39:13.336Z,0
2017-03-21T01:40:13.080Z,0
2017-03-21T01:41:13.442Z,0
2017-03-21T01:42:13.499Z,0
2017-03-21T01:43:13.555Z,0
2017-03-21T01:44:13.607Z,0
2017-03-21T01:45:13.667Z,0
2017-03-21T01:46:13.721Z,0
2017-03-21T01:47:13.759Z,0
2017-03-21T01:48:13.830Z,0
2017-03-21T01:49:13.887Z,0
2017-03-21T01:50:13.918Z,0
2017-03-21T01:51:13.981Z,0
2017-03-21T01:52:14.020Z,0
2017-03-21T01:53:14.096Z,0
2017-03-21T01:54:14.151Z,0
2017-03-21T01:55:14.395Z,0
2017-03-21T01:56:14.250Z,0
2017-03-21T01:57:14.311Z,0
2017-03-21T01:58:14.354Z,0
2017-03-21T01:59:14.607Z,0
2017-03-21T02:00:14.162Z,0
2017-03-21T02:01:14.513Z,0
2017-03-21T02:02:14.582Z,0
2017-03-21T02:03:14.628Z,0
2017-03-21T02:04:14.875Z,0
2017-03-21T02:05:14.740Z,0
2017-03-21T02:06:14.777Z,0
2017-03-21T02:07:14.831Z,0
2017-03-21T02:08:15.128Z,0
2017-03-21T02:09:14.955Z,0
2017-03-21T02:10:15.021Z,0
2017-03-21T02:11:15.048Z,0
2017-03-21T02:12:15.114Z,0
2017-03-21T02:13:15.161Z,0
2017-03-21T02:14:14.621Z,0
2017-03-21T02:15:15.296Z,0
2017-03-21T02:16:15.350Z,0
2017-03-21T02:17:15.386Z,0
2017-03-21T02:18:15.454Z,0
2017-03-21T02:19:15.503Z,0
2017-03-21T02:20:15.562Z,0
2017-03-21T02:21:15.596Z,0
2017-03-21T02:22:15.367Z,0
2017-03-21T02:23:15.427Z,0
2017-03-21T02:24:15.473Z,0
2017-03-21T02:25:15.813Z,0
2017-03-21T02:26:15.885Z,0
2017-03-21T02:27:15.938Z,0
2017-03-21T02:28:15.681Z,0
2017-03-21T02:29:16.088Z,0
2017-03-21T02:30:16.307Z,0
2017-03-21T02:31:16.134Z,0
2017-03-21T02:32:16.212Z,0
2017-03-21T02:33:16.454Z,0
2017-03-21T02:34:16.501Z,0
2017-03-21T02:35:16.374Z,0
2017-03-21T02:36:16.416Z,0
2017-03-21T02:37:16.485Z,0
2017-03-21T02:38:16.748Z,0
2017-03-21T02:39:16.603Z,0
2017-03-21T02:40:30.286Z,0
2017-03-21T02:41:16.686Z,0
2017-03-21T02:42:16.792Z,0
2017-03-21T02:43:30.166Z,0
2017-03-21T02:44:16.869Z,0
2017-03-21T02:45:16.919Z,0
2017-03-21T02:46:17.172Z,0
2017-03-21T02:47:16.719Z,0
2017-03-21T02:48:16.776Z,0
2017-03-21T02:49:17.112Z,0
2017-03-21T02:50:17.181Z,0
2017-03-21T02:51:17.242Z,0
2017-03-21T02:52:17.275Z,0
2017-03-21T02:53:17.339Z,0
2017-03-21T02:54:17.412Z,0
2017-03-21T02:55:17.456Z,0
2017-03-21T02:56:17.529Z,0
2017-03-21T02:57:17.561Z,0
2017-03-21T02:58:17.628Z,0
2017-03-21T02:59:17.669Z,0
2017-03-21T03:00:17.724Z,0
2017-03-21T03:01:17.779Z,0
2017-03-21T03:02:17.820Z,0
2017-03-21T03:03:17.899Z,0
2017-03-21T03:04:17.957Z,0
2017-03-21T03:05:18.002Z,0
2017-03-21T03:06:18.036Z,0
2017-03-21T03:07:18.106Z,0
2017-03-21T03:08:18.373Z,0
2017-03-21T03:09:32.842Z,0
2017-03-21T03:10:18.263Z,0
2017-03-21T03:11:18.317Z,0
2017-03-21T03:12:18.588Z,0
2017-03-21T03:13:31.810Z,0
2017-03-21T03:14:18.483Z,0
2017-03-21T03:15:18.546Z,0
2017-03-21T03:16:18.589Z,0
2017-03-21T03:17:18.344Z,0
2017-03-21T03:18:18.398Z,0
2017-03-21T03:19:18.950Z,0
2017-03-21T03:20:18.826Z,0
2017-03-21T03:21:18.865Z,0
2017-03-21T03:22:18.920Z,0
2017-03-21T03:23:18.983Z,0
2017-03-21T03:24:19.042Z,0
2017-03-21T03:25:18.773Z,0
2017-03-21T03:26:19.124Z,0
2017-03-21T03:27:18.876Z,0
2017-03-21T03:28:19.255Z,0
2017-03-21T03:29:19.298Z,0
2017-03-21T03:30:19.353Z,0
2017-03-21T03:31:19.403Z,0
2017-03-21T03:32:19.465Z,0
2017-03-21T03:33:19.527Z,0
2017-03-21T03:34:19.570Z,0
2017-03-21T03:35:19.322Z,0
2017-03-21T03:36:19.682Z,0
2017-03-21T03:37:19.435Z,0
2017-03-21T03:38:20.005Z,0
2017-03-21T03:39:19.841Z,0
2017-03-21T03:40:19.896Z,0
2017-03-21T03:41:19.959Z,0
2017-03-21T03:42:19.708Z,0
2017-03-21T03:43:20.270Z,0
2017-03-21T03:44:20.121Z,0
2017-03-21T03:45:20.150Z,0
2017-03-21T03:46:20.236Z,0
2017-03-21T03:47:20.264Z,0
2017-03-21T03:48:20.329Z,0
2017-03-21T03:49:20.397Z,0
2017-03-21T03:50:20.438Z,0
2017-03-21T03:51:20.499Z,0
2017-03-21T03:52:20.239Z,0
2017-03-21T03:53:20.610Z,0
2017-03-21T03:54:20.669Z,0
2017-03-21T03:55:20.700Z,0
2017-03-21T03:56:20.764Z,0
2017-03-21T03:57:20.825Z,0
2017-03-21T03:58:20.566Z,0
2017-03-21T03:59:20.613Z,0
2017-03-21T04:00:20.674Z,0
2017-03-21T04:01:21.026Z,0
2017-03-21T04:02:21.070Z,0
2017-03-21T04:03:21.137Z,0
2017-03-21T04:04:21.180Z,0
2017-03-21T04:05:21.245Z,0
2017-03-21T04:06:20.989Z,0
2017-03-21T04:07:21.354Z,0
2017-03-21T04:08:21.402Z,0
2017-03-21T04:09:21.469Z,0
2017-03-21T04:10:21.527Z,0
2017-03-21T04:11:21.562Z,0
2017-03-21T04:12:21.630Z,0
2017-03-21T04:13:21.685Z,0
2017-03-21T04:14:21.728Z,0
2017-03-21T04:15:21.495Z,0
2017-03-21T04:16:21.527Z,0
2017-03-21T04:17:21.894Z,0
2017-03-21T04:18:21.949Z,0
2017-03-21T04:19:22.008Z,0
2017-03-21T04:20:22.040Z,0
2017-03-21T04:21:22.122Z,0
2017-03-21T04:22:22.150Z,0
2017-03-21T04:23:22.219Z,0
2017-03-21T04:24:22.276Z,0
2017-03-21T04:25:22.341Z,0
2017-03-21T04:26:22.362Z,0
2017-03-21T04:27:22.117Z,0
2017-03-21T04:28:22.482Z,0
2017-03-21T04:29:22.538Z,0
2017-03-21T04:30:22.603Z,0
2017-03-21T04:31:22.651Z,0
2017-03-21T04:32:22.397Z,0
2017-03-21T04:33:22.776Z,0
2017-03-21T04:34:22.805Z,0
2017-03-21T04:35:22.869Z,0
2017-03-21T04:36:22.922Z,0
2017-03-21T04:37:22.986Z,0
2017-03-21T04:38:23.048Z,0
2017-03-21T04:39:23.095Z,0
2017-03-21T04:40:23.146Z,0
2017-03-21T04:41:23.187Z,0
2017-03-21T04:42:23.248Z,0
2017-03-21T04:43:23.294Z,0
2017-03-21T04:44:23.359Z,0
2017-03-21T04:45:23.416Z,0
2017-03-21T04:46:23.470Z,0
2017-03-21T04:47:23.506Z,0
2017-03-21T04:48:23.563Z,0
2017-03-21T04:49:23.622Z,0
2017-03-21T04:50:23.669Z,0
2017-03-21T04:51:23.723Z,0
2017-03-21T04:52:23.782Z,0
2017-03-21T04:53:23.829Z,0
2017-03-21T04:54:23.889Z,0
2017-03-21T04:55:23.924Z,0
2017-03-21T04:56:23.991Z,0
2017-03-21T04:57:24.050Z,0
2017-03-21T04:58:24.115Z,0
2017-03-21T04:59:23.547Z,0
2017-03-21T05:00:24.218Z,0
2017-03-21T05:01:24.248Z,0
2017-03-21T05:02:24.303Z,4
2017-03-21T05:03:24.376Z,4
2017-03-21T05:04:24.168Z,4
2017-03-21T05:05:24.180Z,4
2017-03-21T05:06:24.518Z,4
2017-03-21T05:07:24.587Z,4
2017-03-21T05:08:24.641Z,4
2017-03-21T05:09:24.702Z,8
2017-03-21T05:10:24.748Z,8
2017-03-21T05:11:24.819Z,8
2017-03-21T05:12:24.868Z,8
2017-03-21T05:13:24.913Z,12
2017-03-21T05:14:24.971Z,8
2017-03-21T05:15:25.018Z,12
2017-03-21T05:16:25.062Z,16
2017-03-21T05:17:25.144Z,16
2017-03-21T05:18:24.883Z,20
2017-03-21T05:19:25.248Z,20
2017-03-21T05:20:25.305Z,20
2017-03-21T05:21:25.331Z,24
2017-03-21T05:22:25.402Z,28
2017-03-21T05:23:25.440Z,28
2017-03-21T05:24:25.500Z,32
2017-03-21T05:25:25.560Z,36
2017-03-21T05:26:25.019Z,40
2017-03-21T05:27:25.677Z,44
2017-03-21T05:28:25.726Z,44
2017-03-21T05:29:25.479Z,52
2017-03-21T05:30:25.542Z,56
2017-03-21T05:31:25.894Z,60
2017-03-21T05:32:25.923Z,64
2017-03-21T05:33:25.999Z,68
2017-03-21T05:34:26.063Z,72
2017-03-21T05:35:25.795Z,80
2017-03-21T05:36:25.850Z,84
2017-03-21T05:37:26.205Z,92
2017-03-21T05:38:26.274Z,96
2017-03-21T05:39:26.005Z,100
2017-03-21T05:40:26.376Z,112
2017-03-21T05:41:26.120Z,120
2017-03-21T05:42:26.182Z,124
2017-03-21T05:43:26.227Z,132
2017-03-21T05:44:26.607Z,140
2017-03-21T05:45:26.647Z,148
2017-03-21T05:46:26.681Z,152
2017-03-21T05:47:26.759Z,160
2017-03-21T05:48:26.806Z,164
2017-03-21T05:49:26.865Z,168
2017-03-21T05:50:26.903Z,172
2017-03-21T05:51:26.968Z,180
2017-03-21T05:52:27.013Z,184
2017-03-21T05:53:27.080Z,192
2017-03-21T05:54:27.132Z,200
2017-03-21T05:55:26.872Z,208
2017-03-21T05:56:27.236Z,216
2017-03-21T05:57:27.279Z,228
2017-03-21T05:58:27.360Z,240
2017-03-21T05:59:27.403Z,252
2017-03-21T06:00:27.458Z,264
2017-03-21T06:01:27.210Z,280
2017-03-21T06:02:27.560Z,280
2017-03-21T06:03:27.629Z,276
2017-03-21T06:04:27.385Z,272
2017-03-21T06:05:27.735Z,276
2017-03-21T06:06:27.783Z,284
2017-03-21T06:07:27.838Z,292
2017-03-21T06:08:27.884Z,296
2017-03-21T06:09:27.656Z,300
2017-03-21T06:10:27.994Z,308
2017-03-21T06:11:28.045Z,316
2017-03-21T06:12:28.106Z,324
2017-03-21T06:13:28.175Z,340
2017-03-21T06:14:28.209Z,352
2017-03-21T06:15:28.258Z,360
2017-03-21T06:16:28.324Z,372
2017-03-21T06:17:28.384Z,384
2017-03-21T06:18:28.437Z,392
2017-03-21T06:19:28.472Z,424
2017-03-21T06:20:28.221Z,456
2017-03-21T06:21:28.576Z,452
2017-03-21T06:22:28.649Z,448
2017-03-21T06:23:28.696Z,448
2017-03-21T06:24:28.773Z,472
2017-03-21T06:25:28.799Z,488
2017-03-21T06:26:28.868Z,500
2017-03-21T06:27:28.910Z,516
2017-03-21T06:28:28.963Z,544
2017-03-21T06:29:29.024Z,544
2017-03-21T06:30:29.071Z,556
2017-03-21T06:31:29.134Z,584
2017-03-21T06:32:29.177Z,624
2017-03-21T06:33:29.217Z,628
2017-03-21T06:34:29.272Z,716
2017-03-21T06:35:29.028Z,720
2017-03-21T06:36:28.775Z,716
2017-03-21T06:37:29.144Z,724
2017-03-21T06:38:29.491Z,804
2017-03-21T06:39:29.545Z,848
2017-03-21T06:40:29.599Z,880
2017-03-21T06:41:29.650Z,888
2017-03-21T06:42:29.699Z,912
2017-03-21T06:43:29.458Z,952
2017-03-21T06:44:29.813Z,1000
2017-03-21T06:45:29.857Z,1052
2017-03-21T06:46:29.906Z,1100
2017-03-21T06:47:29.959Z,1144
2017-03-21T06:48:30.031Z,1104
2017-03-21T06:49:30.053Z,1200
2017-03-21T06:50:30.107Z,1168
2017-03-21T06:51:30.167Z,1264
2017-03-21T06:52:30.226Z,1276
2017-03-21T06:53:30.276Z,1256
2017-03-21T06:54:30.326Z,1232
2017-03-21T07:01:01.492Z,1192
2017-03-21T07:01:46.914Z,1180
2017-03-21T07:02:46.676Z,1084
2017-03-21T07:03:46.728Z,1080
2017-03-21T07:04:47.089Z,1184
2017-03-21T07:05:47.130Z,1320
2017-03-21T07:06:47.170Z,1384
2017-03-21T07:07:47.235Z,1488
2017-03-21T07:08:47.298Z,1624
2017-03-21T07:09:47.044Z,1684
2017-03-21T07:10:47.390Z,1744
2017-03-21T07:11:47.450Z,1792
2017-03-21T07:12:47.509Z,1768
2017-03-21T07:13:47.554Z,1864
2017-03-21T07:14:47.618Z,1916
2017-03-21T07:15:47.664Z,1992
2017-03-21T07:16:47.703Z,1992
2017-03-21T07:17:47.765Z,2152
2017-03-21T07:18:47.825Z,2164
2017-03-21T07:19:47.867Z,2212
2017-03-21T07:20:47.926Z,2220
2017-03-21T07:21:47.968Z,2300
2017-03-21T07:22:48.036Z,2784
2017-03-21T07:23:47.795Z,4784
2017-03-21T07:24:48.145Z,5888
2017-03-21T07:25:48.194Z,6092
2017-03-21T07:26:48.255Z,4196
2017-03-21T07:27:48.290Z,2304
2017-03-21T07:28:48.337Z,1808
2017-03-21T07:29:48.408Z,1888
2017-03-21T07:30:48.461Z,2032
2017-03-21T07:31:48.222Z,2036
2017-03-21T07:32:48.560Z,2032
2017-03-21T07:33:48.622Z,2028
2017-03-21T07:34:48.674Z,2084
2017-03-21T07:35:48.973Z,2000
2017-03-21T07:36:48.769Z,1852
2017-03-21T07:37:48.826Z,1760
2017-03-21T07:38:48.885Z,1672
2017-03-21T07:39:48.643Z,1728
2017-03-21T07:40:48.994Z,1888
2017-03-21T07:41:48.749Z,1924
2017-03-21T07:42:48.799Z,1972
2017-03-21T07:43:49.161Z,2016
2017-03-21T07:44:49.226Z,2032
2017-03-21T07:45:49.260Z,2004
2017-03-21T07:46:49.325Z,1944
2017-03-21T07:47:49.063Z,1960
2017-03-21T07:48:49.422Z,1940
2017-03-21T07:49:49.491Z,1940
2017-03-21T07:50:49.519Z,1916
2017-03-21T07:51:49.574Z,2016
2017-03-21T07:52:49.640Z,1984
2017-03-21T07:53:49.685Z,1848
2017-03-21T07:54:49.136Z,1784
2017-03-21T07:55:49.805Z,1704
2017-03-21T07:56:49.556Z,1612
2017-03-21T07:57:49.913Z,1616
2017-03-21T07:58:50.016Z,1588
2017-03-21T07:59:50.020Z,1556
2017-03-21T08:00:50.107Z,1580
2017-03-21T08:01:50.138Z,1532
2017-03-21T08:02:50.172Z,1584
2017-03-21T08:03:50.229Z,1608
2017-03-21T08:04:50.293Z,1552
2017-03-21T08:05:50.348Z,1684
2017-03-21T08:06:50.387Z,1708
2017-03-21T08:07:50.451Z,1752
2017-03-21T08:08:50.512Z,1556
2017-03-21T08:09:50.542Z,1680
2017-03-21T08:10:50.609Z,1668
2017-03-21T08:11:50.650Z,1796
2017-03-21T08:12:50.713Z,1824
2017-03-21T08:13:50.765Z,1544
2017-03-21T08:14:50.824Z,1704
2017-03-21T08:15:50.869Z,1688
2017-03-21T08:16:50.925Z,1612
2017-03-21T08:18:04.373Z,1532
2017-03-21T08:18:51.052Z,1604
2017-03-21T08:19:51.088Z,1656
2017-03-21T08:20:51.152Z,1600
2017-03-21T08:21:51.194Z,1604
2017-03-21T08:22:51.261Z,1652
2017-03-21T08:23:51.318Z,1816
2017-03-21T08:24:51.358Z,1940
2017-03-21T08:25:51.411Z,1884
2017-03-21T08:26:51.462Z,1856
2017-03-21T08:27:51.519Z,1756
2017-03-21T08:28:51.571Z,1676
2017-03-21T08:29:51.325Z,1804
2017-03-21T08:30:51.681Z,1852
2017-03-21T08:31:51.428Z,1848
2017-03-21T08:32:51.785Z,1912
2017-03-21T08:33:51.861Z,1892
2017-03-21T08:34:51.882Z,1760
2017-03-21T08:35:51.952Z,1800
2017-03-21T08:36:52.001Z,1564
2017-03-21T08:37:52.043Z,1608
2017-03-21T08:38:52.103Z,1540
2017-03-21T08:39:52.160Z,1352
2017-03-21T08:40:52.216Z,1436
2017-03-21T08:41:52.267Z,1476
2017-03-21T08:42:52.330Z,1520
2017-03-21T08:43:52.569Z,1588
2017-03-21T08:44:52.445Z,1720
2017-03-21T08:45:52.477Z,2232
2017-03-21T08:46:52.532Z,1960
2017-03-21T08:47:52.591Z,2068
2017-03-21T08:48:52.632Z,2256
2017-03-21T08:49:52.694Z,2248
2017-03-21T08:50:52.747Z,1852
2017-03-21T08:51:52.505Z,1944
2017-03-21T08:52:52.868Z,2352
2017-03-21T08:53:53.114Z,2356
2017-03-21T08:54:52.977Z,2444
2017-03-21T08:55:53.004Z,2420
2017-03-21T08:56:53.074Z,2352
2017-03-21T08:57:53.130Z,2472
2017-03-21T08:58:53.182Z,2504
2017-03-21T08:59:53.225Z,2600
2017-03-21T09:00:53.286Z,2604
2017-03-21T09:01:53.363Z,2612
2017-03-21T09:02:53.405Z,2628
2017-03-21T09:03:53.454Z,2636
2017-03-21T09:04:53.491Z,2624
2017-03-21T09:05:53.559Z,2640
2017-03-21T09:08:55.155Z,2516
2017-03-21T09:09:53.773Z,2544
2017-03-21T09:10:53.816Z,2656
2017-03-21T09:11:53.573Z,2784
2017-03-21T09:12:53.943Z,2904
2017-03-21T09:13:53.973Z,2880
2017-03-21T09:14:54.243Z,2568
2017-03-21T09:15:54.302Z,2580
2017-03-21T09:16:54.144Z,2580
2017-03-21T09:17:54.198Z,2524
2017-03-21T09:18:54.266Z,2600
2017-03-21T09:19:54.528Z,2648
2017-03-21T09:20:54.552Z,3016
2017-03-21T09:21:54.412Z,3008
2017-03-21T09:22:54.461Z,2784
2017-03-21T09:23:54.525Z,2612
2017-03-21T09:24:54.580Z,2524
2017-03-21T09:25:54.844Z,2572
2017-03-21T09:26:54.701Z,2808
2017-03-21T09:27:54.432Z,2244
2017-03-21T09:28:54.804Z,3216
2017-03-21T09:29:54.834Z,3316
2017-03-21T09:30:54.916Z,3316
2017-03-21T09:31:54.956Z,3256
2017-03-21T09:32:55.013Z,3268
2017-03-21T09:33:55.059Z,3304
2017-03-21T09:34:55.122Z,3008
2017-03-21T09:35:55.173Z,2624
2017-03-21T09:36:55.235Z,2784
2017-03-21T09:37:55.283Z,2652
2017-03-21T09:38:55.349Z,2696
2017-03-21T09:39:55.113Z,2500
2017-03-21T09:40:55.442Z,2352
2017-03-21T09:41:55.493Z,2332
2017-03-21T09:42:55.546Z,2572
2017-03-21T09:43:55.588Z,2760
2017-03-21T09:44:55.665Z,2824
2017-03-21T09:45:55.707Z,2836
2017-03-21T09:46:55.763Z,2552
2017-03-21T09:47:55.816Z,2672
2017-03-21T09:48:55.878Z,2512
2017-03-21T09:49:55.926Z,2224
2017-03-21T09:50:55.992Z,1972
2017-03-21T09:51:55.740Z,2264
2017-03-21T09:52:56.085Z,2572
2017-03-21T09:53:56.145Z,2996
2017-03-21T09:54:56.193Z,2820
2017-03-21T09:56:09.659Z,3040
2017-03-21T09:56:56.508Z,2936
2017-03-21T09:57:56.354Z,2664
2017-03-21T09:58:56.392Z,2956
2017-03-21T09:59:56.495Z,3040
2017-03-21T10:00:56.521Z,3096
2017-03-21T10:01:56.268Z,3248
2017-03-21T10:02:56.626Z,3224
2017-03-21T10:03:56.691Z,3336
2017-03-21T10:04:56.736Z,3504
2017-03-21T10:05:56.797Z,3236
2017-03-21T10:06:56.838Z,3272
2017-03-21T10:07:56.895Z,2896
2017-03-21T10:08:56.956Z,3064
2017-03-21T10:09:56.987Z,3172
2017-03-21T10:10:57.052Z,2880
2017-03-21T10:11:57.095Z,2756
2017-03-21T10:12:57.157Z,2672
2017-03-21T10:13:57.223Z,2608
2017-03-21T10:14:57.263Z,3132
2017-03-21T10:15:57.312Z,3456
2017-03-21T10:16:57.366Z,3292
2017-03-21T10:17:57.421Z,3436
2017-03-21T10:18:57.466Z,3132
2017-03-21T10:19:57.529Z,2812
2017-03-21T10:20:57.591Z,3392
2017-03-21T10:21:57.633Z,3464
2017-03-21T10:22:57.691Z,3236
2017-03-21T10:23:57.751Z,2768
2017-03-21T10:24:57.792Z,3196
2017-03-21T10:25:57.857Z,3456
2017-03-21T10:26:57.920Z,3676
2017-03-21T10:27:57.958Z,3664
2017-03-21T10:28:58.023Z,3480
2017-03-21T10:29:58.055Z,3516
2017-03-21T10:30:58.111Z,3396
2017-03-21T10:31:58.165Z,3536
2017-03-21T10:32:58.239Z,3908
2017-03-21T10:33:57.983Z,3764
2017-03-21T10:34:58.338Z,3624
2017-03-21T10:35:58.396Z,3120
2017-03-21T10:36:58.432Z,3040
2017-03-21T10:37:58.500Z,3400
2017-03-21T10:38:58.242Z,3484
2017-03-21T10:39:58.617Z,3792
2017-03-21T10:40:58.851Z,3980
2017-03-21T10:42:13.338Z,3972
2017-03-21T10:42:58.776Z,3852
2017-03-21T10:43:58.809Z,4228
2017-03-21T10:44:58.880Z,4100
2017-03-21T10:45:58.943Z,4172
2017-03-21T10:46:59.212Z,3752
2017-03-21T10:47:59.051Z,3568
2017-03-21T10:48:59.111Z,4120
2017-03-21T10:49:59.151Z,4024
2017-03-21T10:50:59.204Z,3220
2017-03-21T10:51:59.272Z,3132
2017-03-21T10:52:59.310Z,2900
2017-03-21T10:53:59.370Z,3272
2017-03-21T10:54:59.123Z,3492
2017-03-21T10:55:59.173Z,3820
2017-03-21T10:56:59.528Z,3648
2017-03-21T10:57:59.571Z,3052
2017-03-21T10:58:59.636Z,2932
2017-03-21T10:59:59.686Z,2920
2017-03-21T11:00:59.738Z,3072
2017-03-21T11:01:59.804Z,3152
2017-03-21T11:02:59.857Z,3140
2017-03-21T11:03:59.962Z,3320
2017-03-21T11:04:59.966Z,3052
2017-03-21T11:06:00.020Z,2916
2017-03-21T11:07:00.067Z,2856
2017-03-21T11:07:59.818Z,2824
2017-03-21T11:09:00.175Z,2884
2017-03-21T11:10:00.237Z,3240
2017-03-21T11:11:00.287Z,3832
2017-03-21T11:12:00.340Z,4016
2017-03-21T11:13:00.395Z,3824
2017-03-21T11:14:00.154Z,3528
2017-03-21T11:15:00.192Z,3324
2017-03-21T11:16:00.572Z,3452
2017-03-21T11:17:00.609Z,3808
2017-03-21T11:18:00.670Z,3972
2017-03-21T11:19:00.430Z,3824
2017-03-21T11:20:00.791Z,4208
2017-03-21T11:21:00.828Z,4324
2017-03-21T11:22:14.548Z,4440
2017-03-21T11:23:00.942Z,4796
2017-03-21T11:24:01.002Z,7252
2017-03-21T11:25:01.065Z,14864
2017-03-21T11:26:01.102Z,26048
2017-03-21T11:27:01.158Z,23488
2017-03-21T11:28:01.199Z,8604
2017-03-21T11:29:01.280Z,6556
2017-03-21T11:30:01.334Z,10468
2017-03-21T11:31:01.376Z,15912
2017-03-21T11:32:01.436Z,19032
2017-03-21T11:33:01.481Z,16764
2017-03-21T11:34:01.546Z,16492
2017-03-21T11:35:01.309Z,23456
2017-03-21T11:36:01.040Z,21536
2017-03-21T11:37:01.689Z,14996
2017-03-21T11:38:01.465Z,9852
2017-03-21T11:39:01.818Z,9572
2017-03-21T11:40:01.554Z,12284
2017-03-21T11:41:01.317Z,22944
2017-03-21T11:42:01.975Z,25728
2017-03-21T11:43:02.024Z,11392
2017-03-21T11:44:02.079Z,8388
2017-03-21T11:45:02.138Z,7984
2017-03-21T11:46:02.205Z,6756
2017-03-21T11:47:02.258Z,5016
2017-03-21T11:48:02.008Z,6424
2017-03-21T11:49:02.356Z,8340
2017-03-21T11:50:02.110Z,8124
2017-03-21T11:51:02.453Z,7932
2017-03-21T11:52:02.505Z,8628
2017-03-21T11:53:02.575Z,11588
2017-03-21T11:54:02.644Z,9336
2017-03-21T11:55:02.683Z,11956
2017-03-21T11:56:02.428Z,12036
2017-03-21T11:57:02.799Z,8720
2017-03-21T11:58:02.860Z,7808
2017-03-21T11:59:02.898Z,9124
2017-03-21T12:00:02.953Z,13300
2017-03-21T12:01:03.017Z,21568
2017-03-21T12:02:03.074Z,21376
2017-03-21T12:03:03.118Z,22624
2017-03-21T12:04:03.175Z,27936
2017-03-21T12:05:02.923Z,23392
2017-03-21T12:06:02.977Z,15620
2017-03-21T12:07:03.338Z,15664
2017-03-21T12:08:03.390Z,13260
2017-03-21T12:09:03.146Z,11652
2017-03-21T12:10:03.492Z,9440
2017-03-21T12:11:03.556Z,14896
2017-03-21T12:12:03.620Z,17364
2017-03-21T12:13:03.681Z,16676
2017-03-21T12:14:03.428Z,21952
2017-03-21T12:15:03.786Z,18264
2017-03-21T12:16:03.818Z,15824
2017-03-21T12:17:03.881Z,13736
2017-03-21T12:18:03.951Z,13136
2017-03-21T12:19:03.998Z,15564
2017-03-21T12:20:04.051Z,12980
2017-03-21T12:21:04.116Z,12932
2017-03-21T12:22:04.149Z,16004
2017-03-21T12:23:04.204Z,12700
2017-03-21T12:24:03.968Z,11396
2017-03-21T12:25:04.335Z,11132
2017-03-21T12:26:04.371Z,10932
2017-03-21T12:27:04.456Z,11060
2017-03-21T12:28:04.494Z,9576
2017-03-21T12:29:04.546Z,9380
2017-03-21T12:30:04.599Z,9124
2017-03-21T12:31:04.646Z,9004
2017-03-21T12:32:04.705Z,8976
2017-03-21T12:33:04.457Z,9048
2017-03-21T12:34:04.838Z,8724
2017-03-21T12:35:04.880Z,8580
2017-03-21T12:36:04.934Z,8408
2017-03-21T12:37:04.990Z,8436
2017-03-21T12:38:05.033Z,8708
2017-03-21T12:39:05.105Z,8824
2017-03-21T12:40:05.155Z,8612
2017-03-21T12:41:05.225Z,8748
2017-03-21T12:42:05.263Z,8312
2017-03-21T12:43:05.028Z,8504
2017-03-21T12:44:05.064Z,8452
2017-03-21T12:45:05.435Z,8572
2017-03-21T12:46:05.502Z,8692
2017-03-21T12:47:05.555Z,8848
2017-03-21T12:48:05.290Z,9644
2017-03-21T12:49:05.672Z,9972
2017-03-21T12:50:05.405Z,10008
2017-03-21T12:51:05.766Z,11252
2017-03-21T12:52:05.837Z,11168
2017-03-21T12:53:05.873Z,11896
2017-03-21T12:54:05.940Z,12176
2017-03-21T12:55:05.994Z,12580
2017-03-21T12:56:06.048Z,12408
2017-03-21T12:57:06.087Z,13696
2017-03-21T12:58:05.855Z,12252
2017-03-21T12:59:06.212Z,13700
2017-03-21T13:06:05.490Z,13436
2017-03-21T13:06:47.891Z,14464
2017-03-21T13:07:48.249Z,8632
2017-03-21T13:08:48.001Z,20456
2017-03-21T13:09:48.360Z,20480
2017-03-21T13:10:48.111Z,20192
2017-03-21T13:11:48.172Z,23456
2017-03-21T13:12:48.231Z,22016
2017-03-21T13:13:48.576Z,7244
2017-03-21T13:14:48.642Z,9560
2017-03-21T13:15:48.689Z,18232
2017-03-21T13:16:48.745Z,15416
2017-03-21T13:17:48.799Z,7256
2017-03-21T13:18:48.555Z,27616
2017-03-21T13:19:48.610Z,22336
2017-03-21T13:20:48.971Z,15512
2017-03-21T13:21:48.720Z,32928
2017-03-21T13:22:48.773Z,30432
2017-03-21T13:23:49.127Z,31232
2017-03-21T13:24:49.193Z,33472
2017-03-21T13:25:49.247Z,28512
2017-03-21T13:26:49.300Z,20768
2017-03-21T13:27:49.054Z,18720
2017-03-21T13:28:49.409Z,20816
2017-03-21T13:29:49.464Z,18648
2017-03-21T13:30:49.518Z,15528
2017-03-21T13:31:49.272Z,14260
2017-03-21T13:32:49.629Z,8248
2017-03-21T13:33:49.685Z,5104
2017-03-21T13:34:49.743Z,4840
2017-03-21T13:35:49.489Z,2968
2017-03-21T13:36:49.848Z,2728
2017-03-21T13:37:49.899Z,2780
2017-03-21T13:38:49.662Z,4560
2017-03-21T13:39:50.022Z,2964
2017-03-21T13:40:50.068Z,2772
2017-03-21T13:41:50.125Z,2724
2017-03-21T13:42:50.180Z,3072
2017-03-21T13:43:49.629Z,2336
2017-03-21T13:44:49.983Z,2020
2017-03-21T13:45:50.047Z,1932
2017-03-21T13:46:49.793Z,1948
2017-03-21T13:47:50.149Z,1904
2017-03-21T13:48:50.507Z,1916
2017-03-21T13:49:50.561Z,2012
2017-03-21T13:50:50.017Z,1908
2017-03-21T13:51:50.068Z,1748
2017-03-21T13:52:50.723Z,1740
2017-03-21T13:53:50.790Z,1692
2017-03-21T13:54:50.839Z,1640
2017-03-21T13:55:50.890Z,1480
2017-03-21T13:56:50.939Z,1400
2017-03-21T13:57:50.726Z,1372
2017-03-21T13:58:50.752Z,1324
2017-03-21T13:59:50.802Z,1276
2017-03-21T14:00:50.858Z,1164
2017-03-21T14:01:51.218Z,1176
2017-03-21T14:02:50.973Z,1244
2017-03-21T14:03:51.326Z,1356
2017-03-21T14:04:51.385Z,1480